createdAt,value
2023-04-06T00:01:47.752Z,7.45
2023-04-06T00:06:49.520Z,8.02
2023-04-06T00:09:21.536Z,10.55
2023-04-06T00:11:53.003Z,7.95
2023-04-06T00:14:24.317Z,11.48
2023-04-06T00:16:55.751Z,7.03
2023-04-06T00:19:27.299Z,8.65
2023-04-06T00:21:58.818Z,8.27
2023-04-06T00:24:29.737Z,10.07
2023-04-06T00:27:00.971Z,9.45
2023-04-06T00:29:32.623Z,12.05
2023-04-06T00:32:04.738Z,9.93
2023-04-06T00:34:36.065Z,8.30
2023-04-06T00:37:07.200Z,10.70
2023-04-06T00:39:40.317Z,9.45
2023-04-06T00:42:16.234Z,10.13
2023-04-06T00:44:47.805Z,9.95
2023-04-06T00:47:19.496Z,10.23
2023-04-06T00:49:51.256Z,9.38
2023-04-06T00:54:54.215Z,8.32
2023-04-06T00:57:27.002Z,9.52
2023-04-06T01:00:00.369Z,9.25
2023-04-06T01:02:32.477Z,10.98
2023-04-06T01:05:04.387Z,10.18
2023-04-06T01:07:44.845Z,8.40
2023-04-06T01:10:28.754Z,8.48
2023-04-06T01:13:10.928Z,9.82
2023-04-06T01:16:05.112Z,10.32
2023-04-06T01:19:00.122Z,9.60
2023-04-06T01:21:34.760Z,10.50
2023-04-06T01:24:25.823Z,11.82
2023-04-06T01:27:17.227Z,9.55
2023-04-06T01:30:00.514Z,11.73
2023-04-06T01:32:54.842Z,11.73
2023-04-06T01:35:40.242Z,12.82
2023-04-06T01:38:20.572Z,12.90
2023-04-06T01:40:52.957Z,12.38
2023-04-06T01:43:26.565Z,14.27
2023-04-06T01:46:10.430Z,11.90
2023-04-06T01:48:45.792Z,16.00
2023-04-06T01:51:34.894Z,10.93
2023-04-06T01:54:08.783Z,9.95
2023-04-06T01:57:02.810Z,13.77
2023-04-06T01:59:44.181Z,11.90
2023-04-06T02:02:26.761Z,12.90
2023-04-06T02:05:03.830Z,15.00
2023-04-06T02:07:35.200Z,13.27
2023-04-06T02:10:14.448Z,12.55
2023-04-06T02:12:47.696Z,13.10
2023-04-06T02:15:25.213Z,10.80
2023-04-06T02:17:56.871Z,12.18
2023-04-06T02:20:28.854Z,13.13
2023-04-06T02:23:03.009Z,14.00
2023-04-06T02:25:34.891Z,13.23
2023-04-06T02:28:06.094Z,11.13
2023-04-06T02:30:37.673Z,10.57
2023-04-06T02:33:09.363Z,9.25
2023-04-06T02:35:48.524Z,10.13
2023-04-06T02:38:19.746Z,13.07
2023-04-06T02:40:51.114Z,15.90
2023-04-06T02:43:25.565Z,15.48
2023-04-06T02:46:05.843Z,11.80
2023-04-06T02:48:41.627Z,11.52
2023-04-06T02:51:12.832Z,10.68
2023-04-06T02:53:46.710Z,12.48
2023-04-06T02:56:18.603Z,10.80
2023-04-06T02:58:54.535Z,13.25
2023-04-06T03:01:30.412Z,14.25
2023-04-06T03:04:06.273Z,15.07
2023-04-06T03:06:37.438Z,9.88
2023-04-06T03:09:17.973Z,11.07
2023-04-06T03:11:50.184Z,10.60
2023-04-06T03:14:24.054Z,14.02
2023-04-06T03:16:55.380Z,11.32
2023-04-06T03:19:28.395Z,13.38
2023-04-06T03:22:03.844Z,11.50
2023-04-06T03:24:35.304Z,14.20
2023-04-06T03:27:07.213Z,16.05
2023-04-06T03:29:39.476Z,8.65
2023-04-06T03:32:12.908Z,10.63
2023-04-06T03:34:45.772Z,14.57
2023-04-06T03:37:17.098Z,14.57
2023-04-06T03:39:53.156Z,15.75
2023-04-06T03:42:27.507Z,15.55
2023-04-06T03:45:05.262Z,12.13
2023-04-06T03:47:36.737Z,13.38
2023-04-06T03:50:11.649Z,12.10
2023-04-06T03:52:43.464Z,11.23
2023-04-06T03:55:14.751Z,13.93
2023-04-06T03:57:46.315Z,11.38
2023-04-06T04:00:17.911Z,11.75
2023-04-06T04:02:48.890Z,16.38
2023-04-06T04:05:20.230Z,12.43
2023-04-06T04:07:51.450Z,11.57
2023-04-06T04:10:24.908Z,12.55
2023-04-06T04:12:56.421Z,14.65
2023-04-06T04:15:28.439Z,13.32
2023-04-06T04:18:03.547Z,13.75
2023-04-06T04:20:34.870Z,13.77
2023-04-06T04:23:06.223Z,13.63
2023-04-06T04:25:38.502Z,17.15
2023-04-06T04:28:10.968Z,12.95
2023-04-06T04:30:44.363Z,11.93
2023-04-06T04:33:16.754Z,12.73
2023-04-06T04:35:49.356Z,15.35
2023-04-06T04:38:23.531Z,18.67
2023-04-06T04:40:57.407Z,15.88
2023-04-06T04:43:29.795Z,17.75
2023-04-06T04:46:03.103Z,13.05
2023-04-06T04:48:42.060Z,14.23
2023-04-06T04:51:13.207Z,15.77
2023-04-06T04:54:16.372Z,13.73
2023-04-06T04:56:48.298Z,14.20
2023-04-06T04:59:27.384Z,13.77
2023-04-06T05:02:08.082Z,14.67
2023-04-06T05:04:51.894Z,13.95
2023-04-06T05:07:27.277Z,13.90
2023-04-06T05:10:00.791Z,13.85
2023-04-06T05:12:37.049Z,14.13
2023-04-06T05:15:13.417Z,13.40
2023-04-06T05:17:45.701Z,14.20
2023-04-06T05:20:21.573Z,18.13
2023-04-06T05:22:55.159Z,14.73
2023-04-06T05:25:26.769Z,12.10
2023-04-06T05:28:01.383Z,15.73
2023-04-06T05:30:35.865Z,14.68
2023-04-06T05:35:51.251Z,21.10
2023-04-06T05:38:22.613Z,19.40
2023-04-06T05:40:56.302Z,16.92
2023-04-06T05:43:31.085Z,14.00
2023-04-06T05:46:03.902Z,16.65
2023-04-06T05:51:08.727Z,14.32
2023-04-06T05:53:51.997Z,16.60
2023-04-06T05:56:23.408Z,24.77
2023-04-06T06:01:31.763Z,61.55
2023-04-06T06:04:04.984Z,24.10
2023-04-06T06:06:39.917Z,25.75
2023-04-06T06:09:18.902Z,20.50
2023-04-06T06:12:05.216Z,23.35
2023-04-06T06:14:36.818Z,19.77
2023-04-06T06:19:39.721Z,14.52
2023-04-06T06:22:13.518Z,13.38
2023-04-06T06:24:48.426Z,12.80
2023-04-06T06:27:22.255Z,11.88
2023-04-06T06:29:53.503Z,11.68
2023-04-06T06:32:24.766Z,10.50
2023-04-06T06:34:57.575Z,9.65
2023-04-06T06:37:30.701Z,11.00
2023-04-06T06:40:04.136Z,8.35
2023-04-06T06:42:37.282Z,14.18
2023-04-06T06:45:18.194Z,14.23
2023-04-06T06:47:52.200Z,17.67
2023-04-06T06:50:25.059Z,10.93
2023-04-06T06:52:57.247Z,13.38
2023-04-06T06:55:29.293Z,18.42
2023-04-06T06:58:00.484Z,22.70
2023-04-06T07:00:31.783Z,16.90
2023-04-06T07:03:03.274Z,18.77
2023-04-06T07:05:34.951Z,20.10
2023-04-06T07:08:06.645Z,13.93
2023-04-06T07:10:37.769Z,13.95
2023-04-06T07:13:09.466Z,11.90
2023-04-06T07:15:40.958Z,15.95
2023-04-06T07:18:12.529Z,17.75
2023-04-06T07:20:44.807Z,11.65
2023-04-06T07:23:16.441Z,8.48
2023-04-06T07:25:48.032Z,9.63
2023-04-06T07:30:50.974Z,16.95
2023-04-06T07:33:22.446Z,18.92
2023-04-06T07:35:54.960Z,14.73
2023-04-06T07:38:26.498Z,14.52
2023-04-06T07:40:58.322Z,18.75
2023-04-06T07:43:29.709Z,12.88
2023-04-06T07:46:02.893Z,21.17
2023-04-06T07:48:34.063Z,16.35
2023-04-06T07:51:09.183Z,14.77
2023-04-06T07:53:43.798Z,12.20
2023-04-06T07:56:15.115Z,10.80
2023-04-06T07:58:46.683Z,11.77
2023-04-06T08:01:17.696Z,10.85
2023-04-06T08:03:49.362Z,9.98
2023-04-06T08:06:20.681Z,14.70
2023-04-06T08:08:52.090Z,14.50
2023-04-06T08:11:23.826Z,8.48
2023-04-06T08:16:26.698Z,36.80
2023-04-06T08:18:58.246Z,50.58
2023-04-06T08:24:00.606Z,83.15
2023-04-06T08:26:32.218Z,41.35
2023-04-06T08:29:03.675Z,31.63
2023-04-06T08:34:09.551Z,8.65
2023-04-06T08:36:42.220Z,7.13
2023-04-06T08:39:13.336Z,19.20
2023-04-06T08:41:48.042Z,21.40
2023-04-06T08:44:20.382Z,8.75
2023-04-06T08:46:53.430Z,6.05
2023-04-06T08:49:25.348Z,7.28
2023-04-06T08:51:56.615Z,8.02
2023-04-06T08:54:28.002Z,9.25
2023-04-06T08:59:30.893Z,10.15
2023-04-06T09:02:05.515Z,9.50
2023-04-06T09:04:38.053Z,10.43
2023-04-06T09:07:10.044Z,7.93
2023-04-06T09:09:45.898Z,7.75
2023-04-06T09:12:46.677Z,8.32
2023-04-06T09:15:25.069Z,15.32
2023-04-06T09:17:57.056Z,21.88
2023-04-06T09:20:30.607Z,19.63
2023-04-06T09:23:02.577Z,8.18
2023-04-06T09:25:35.067Z,6.45
2023-04-06T09:28:09.609Z,8.48
2023-04-06T09:30:54.515Z,5.35
2023-04-06T09:33:27.395Z,4.50
2023-04-06T09:35:58.714Z,6.20
2023-04-06T09:38:30.248Z,10.82
2023-04-06T09:41:01.838Z,12.38
2023-04-06T09:43:33.677Z,10.15
2023-04-06T09:46:05.829Z,7.90
2023-04-06T09:48:38.001Z,9.00
2023-04-06T09:51:10.296Z,7.78
2023-04-06T09:53:42.721Z,8.15
2023-04-06T09:56:21.052Z,8.13
2023-04-06T09:58:53.457Z,10.02
2023-04-06T10:01:26.469Z,9.35
2023-04-06T10:04:12.929Z,7.85
2023-04-06T10:06:44.723Z,7.65
2023-04-06T10:09:16.947Z,6.18
2023-04-06T10:11:48.371Z,7.72
2023-04-06T10:14:19.935Z,5.90
2023-04-06T10:16:53.309Z,6.32
2023-04-06T10:19:29.335Z,6.85
2023-04-06T10:22:02.226Z,5.88
2023-04-06T10:24:34.147Z,7.20
2023-04-06T10:27:06.775Z,8.13
2023-04-06T10:29:49.369Z,6.03
2023-04-06T10:32:20.564Z,6.85
2023-04-06T10:34:51.823Z,8.00
2023-04-06T10:37:23.795Z,8.30
2023-04-06T10:40:00.812Z,9.13
2023-04-06T10:42:43.230Z,6.72
2023-04-06T10:45:28.609Z,7.57
2023-04-06T10:48:00.350Z,8.05
2023-04-06T10:50:33.369Z,8.48
2023-04-06T10:53:05.814Z,6.50
2023-04-06T10:55:38.221Z,9.43
2023-04-06T10:58:12.632Z,8.02
2023-04-06T11:00:51.698Z,8.07
2023-04-06T11:03:23.362Z,7.97
2023-04-06T11:05:55.220Z,8.70
2023-04-06T11:08:33.464Z,8.60
2023-04-06T11:11:12.548Z,7.93
2023-04-06T11:13:58.301Z,7.80
2023-04-06T11:16:33.869Z,8.52
2023-04-06T11:19:08.326Z,8.48
2023-04-06T11:21:46.055Z,8.80
2023-04-06T11:24:25.032Z,7.63
2023-04-06T11:27:03.541Z,8.23
2023-04-06T11:29:37.974Z,7.80
2023-04-06T11:32:09.927Z,8.90
2023-04-06T11:34:43.283Z,8.00
2023-04-06T11:37:15.589Z,7.32
2023-04-06T11:39:54.696Z,8.20
2023-04-06T11:42:33.251Z,8.30
2023-04-06T11:45:04.735Z,8.70
2023-04-06T11:47:41.734Z,8.73
2023-04-06T11:50:16.390Z,9.27
2023-04-06T11:52:47.555Z,9.82
2023-04-06T11:55:21.004Z,7.60
2023-04-06T11:57:52.800Z,7.35
2023-04-06T12:00:25.578Z,8.70
2023-04-06T12:02:56.874Z,6.85
2023-04-06T12:05:28.311Z,7.30
2023-04-06T12:08:02.611Z,6.93
2023-04-06T12:10:35.104Z,6.70
2023-04-06T12:13:06.926Z,6.50
2023-04-06T12:15:38.736Z,7.43
2023-04-06T12:18:10.400Z,7.35
2023-04-06T12:23:13.304Z,7.72
2023-04-06T12:25:44.970Z,7.43
2023-04-06T12:28:17.027Z,7.13
2023-04-06T12:30:48.470Z,7.05
2023-04-06T12:33:20.061Z,8.88
2023-04-06T12:35:51.541Z,8.45
2023-04-06T12:38:23.837Z,7.15
2023-04-06T12:40:55.073Z,6.95
2023-04-06T12:43:27.206Z,6.88
2023-04-06T12:45:58.428Z,7.00
2023-04-06T12:48:30.007Z,6.90
2023-04-06T12:53:38.616Z,6.40
2023-04-06T12:56:19.326Z,6.45
2023-04-06T12:58:50.945Z,6.60
2023-04-06T13:03:53.921Z,5.80
2023-04-06T13:06:29.636Z,5.70
2023-04-06T13:09:01.116Z,5.45
2023-04-06T13:11:33.919Z,9.50
2023-04-06T13:14:12.153Z,6.05
2023-04-06T13:16:43.760Z,5.30
2023-04-06T13:19:15.343Z,6.07
2023-04-06T13:21:46.820Z,6.45
2023-04-06T13:24:18.426Z,5.72
2023-04-06T13:29:20.935Z,5.22
2023-04-06T13:31:52.500Z,5.57
2023-04-06T13:34:23.947Z,5.57
2023-04-06T13:36:55.696Z,5.55
2023-04-06T13:39:26.932Z,6.30
2023-04-06T13:42:02.143Z,5.40
2023-04-06T13:44:35.275Z,6.00
2023-04-06T13:47:06.831Z,6.25
2023-04-06T13:52:09.275Z,6.45
2023-04-06T13:54:40.574Z,5.50
2023-04-06T13:57:12.030Z,6.72
2023-04-06T14:02:15.317Z,5.63
2023-04-06T14:04:47.068Z,6.80
2023-04-06T14:07:18.319Z,6.75
2023-04-06T14:09:49.663Z,5.10
2023-04-06T14:12:20.869Z,5.68
2023-04-06T14:14:52.696Z,4.80
2023-04-06T14:19:55.352Z,6.13
2023-04-06T14:22:26.974Z,4.57
2023-04-06T14:24:58.338Z,4.93
2023-04-06T14:27:29.713Z,5.82
2023-04-06T14:32:32.251Z,5.07
2023-04-06T14:35:04.604Z,4.55
2023-04-06T14:37:36.267Z,6.75
2023-04-06T14:40:08.439Z,6.13
2023-04-06T14:45:10.691Z,5.28
2023-04-06T14:47:42.339Z,6.60
2023-04-06T14:50:13.821Z,5.07
2023-04-06T14:52:48.662Z,5.35
2023-04-06T14:55:19.826Z,4.45
2023-04-06T14:57:51.419Z,4.40
2023-04-06T15:00:22.841Z,4.32
2023-04-06T15:02:53.851Z,6.10
2023-04-06T15:05:25.460Z,3.85
2023-04-06T15:07:58.165Z,4.38
2023-04-06T15:10:34.192Z,3.75
2023-04-06T15:13:05.853Z,4.65
2023-04-06T15:15:38.073Z,3.33
2023-04-06T15:18:09.546Z,4.38
2023-04-06T15:20:40.838Z,4.00
2023-04-06T15:23:12.348Z,3.50
2023-04-06T15:28:14.814Z,4.50
2023-04-06T15:30:47.637Z,3.10
2023-04-06T15:33:19.757Z,4.18
2023-04-06T15:35:51.688Z,3.80
2023-04-06T15:38:23.339Z,4.35
2023-04-06T15:43:25.213Z,4.20
2023-04-06T15:45:56.566Z,3.58
2023-04-06T15:48:27.984Z,3.40
2023-04-06T15:51:00.588Z,6.13
2023-04-06T15:53:32.020Z,4.38
2023-04-06T15:56:04.687Z,3.85
2023-04-06T15:58:36.431Z,3.00
2023-04-06T16:01:15.737Z,3.75
2023-04-06T16:03:48.105Z,3.95
2023-04-06T16:06:19.740Z,5.90
2023-04-06T16:08:51.006Z,3.42
2023-04-06T16:11:22.766Z,4.05
2023-04-06T16:13:55.374Z,4.75
2023-04-06T16:16:27.583Z,3.67
2023-04-06T16:18:58.900Z,3.63
2023-04-06T16:21:30.252Z,4.32
2023-04-06T16:24:01.551Z,7.03
2023-04-06T16:26:33.455Z,5.10
2023-04-06T16:31:35.644Z,6.65
2023-04-06T16:34:07.031Z,4.13
2023-04-06T16:36:39.012Z,3.92
2023-04-06T16:39:10.907Z,2.15
2023-04-06T16:44:13.800Z,3.50
2023-04-06T16:46:45.668Z,1.88
2023-04-06T16:49:18.911Z,3.35
2023-04-06T16:51:51.239Z,2.38
2023-04-06T16:54:22.595Z,3.17
2023-04-06T16:56:53.935Z,3.92
2023-04-06T16:59:25.505Z,2.15
2023-04-06T17:01:56.727Z,2.75
2023-04-06T17:04:28.176Z,3.83
2023-04-06T17:06:59.320Z,4.15
2023-04-06T17:09:30.748Z,3.20
2023-04-06T17:12:03.496Z,3.92
2023-04-06T17:14:34.470Z,4.00
2023-04-06T17:19:38.208Z,5.07
2023-04-06T17:22:09.834Z,4.05
2023-04-06T17:24:41.069Z,2.28
2023-04-06T17:27:13.007Z,2.45
2023-04-06T17:32:15.308Z,3.80
2023-04-06T17:34:46.356Z,3.00
2023-04-06T17:37:17.984Z,3.50
2023-04-06T17:42:20.217Z,6.80
2023-04-06T17:44:54.570Z,2.78
2023-04-06T17:47:27.271Z,2.63
2023-04-06T17:49:58.620Z,2.53
2023-04-06T17:52:30.677Z,3.72
2023-04-06T17:55:02.002Z,2.95
2023-04-06T17:57:33.510Z,3.47
2023-04-06T18:00:05.325Z,4.55
2023-04-06T18:02:36.315Z,3.60
2023-04-06T18:05:07.634Z,4.35
2023-04-06T18:07:38.857Z,5.45
2023-04-06T18:10:10.731Z,4.57
2023-04-06T18:12:42.934Z,4.18
2023-04-06T18:15:14.299Z,3.63
2023-04-06T18:17:47.109Z,3.17
2023-04-06T18:20:18.736Z,4.38
2023-04-06T18:27:52.645Z,4.40
2023-04-06T18:30:23.746Z,5.65
2023-04-06T18:32:55.429Z,5.43
2023-04-06T18:35:26.336Z,4.38
2023-04-06T18:37:57.499Z,3.90
2023-04-06T18:40:36.628Z,4.05
2023-04-06T18:43:09.998Z,2.85
2023-04-06T18:45:41.356Z,3.00
2023-04-06T18:48:13.061Z,3.72
2023-04-06T18:50:47.397Z,4.65
2023-04-06T18:53:19.046Z,3.33
2023-04-06T18:55:50.256Z,4.97
2023-04-06T18:58:22.103Z,3.80
2023-04-06T19:00:54.438Z,3.65
2023-04-06T19:03:25.889Z,3.92
2023-04-06T19:05:57.429Z,5.03
2023-04-06T19:08:28.639Z,3.25
2023-04-06T19:10:59.752Z,3.90
2023-04-06T19:13:30.805Z,3.28
2023-04-06T19:16:02.622Z,4.38
2023-04-06T19:18:33.902Z,3.03
2023-04-06T19:21:06.776Z,3.30
2023-04-06T19:23:38.378Z,3.63
2023-04-06T19:26:13.296Z,4.78
2023-04-06T19:28:45.265Z,3.05
2023-04-06T19:33:49.086Z,5.28
2023-04-06T19:36:20.241Z,6.65
2023-04-06T19:38:51.834Z,3.33
2023-04-06T19:43:54.818Z,3.15
2023-04-06T19:46:26.088Z,2.95
2023-04-06T19:48:57.626Z,4.30
2023-04-06T19:51:34.060Z,4.50
2023-04-06T19:54:06.367Z,4.43
2023-04-06T19:56:38.428Z,5.18
2023-04-06T19:59:12.803Z,4.80
2023-04-06T20:01:44.133Z,5.45
2023-04-06T20:04:15.975Z,4.35
2023-04-06T20:06:47.238Z,5.07
2023-04-06T20:09:18.882Z,4.10
2023-04-06T20:14:21.048Z,4.10
2023-04-06T20:19:23.902Z,3.25
2023-04-06T20:21:55.223Z,3.10
2023-04-06T20:24:26.678Z,6.03
2023-04-06T20:26:58.222Z,3.97
2023-04-06T20:29:29.498Z,2.50
2023-04-06T20:32:01.526Z,2.92
2023-04-06T20:34:33.828Z,4.80
2023-04-06T20:37:05.081Z,3.70
2023-04-06T20:42:09.014Z,2.55
2023-04-06T20:44:40.344Z,5.05
2023-04-06T20:47:11.445Z,4.90
2023-04-06T20:49:42.698Z,3.15
2023-04-06T20:52:14.571Z,2.42
2023-04-06T20:57:15.837Z,3.42
2023-04-06T20:59:49.290Z,3.25
2023-04-06T21:02:20.821Z,2.42
2023-04-06T21:04:52.322Z,2.72
2023-04-06T21:07:23.396Z,2.75
2023-04-06T21:09:54.710Z,3.65
2023-04-06T21:12:25.523Z,3.42
2023-04-06T21:14:56.645Z,2.95
2023-04-06T21:17:28.287Z,2.42
2023-04-06T21:19:59.457Z,4.63
2023-04-06T21:22:30.774Z,4.72
2023-04-06T21:25:02.054Z,4.45
2023-04-06T21:30:04.285Z,2.28
2023-04-06T21:35:07.383Z,3.63
2023-04-06T21:37:38.935Z,3.38
2023-04-06T21:40:11.008Z,2.17
2023-04-06T21:45:13.766Z,3.05
2023-04-06T21:47:44.722Z,4.10
2023-04-06T21:50:16.162Z,2.03
2023-04-06T21:52:47.591Z,3.67
2023-04-06T21:55:18.934Z,4.55
2023-04-06T21:57:50.210Z,3.15
2023-04-06T22:00:22.033Z,2.67
2023-04-06T22:05:24.456Z,3.38
2023-04-06T22:07:55.591Z,1.52
2023-04-06T22:10:27.364Z,2.85
2023-04-06T22:12:58.815Z,4.20
2023-04-06T22:18:00.605Z,4.07
2023-04-06T22:20:32.430Z,3.83
2023-04-06T22:25:34.261Z,3.90
2023-04-06T22:28:07.773Z,2.45
2023-04-06T22:30:39.046Z,2.58
2023-04-06T22:33:10.396Z,2.97
2023-04-06T22:35:42.104Z,3.75
2023-04-06T22:38:13.465Z,4.85
2023-04-06T22:43:15.555Z,5.93
2023-04-06T22:48:17.801Z,2.75
2023-04-06T22:50:49.158Z,2.65
2023-04-06T22:55:51.074Z,2.20
2023-04-06T22:58:22.570Z,3.30
2023-04-06T23:03:24.273Z,3.08
2023-04-06T23:05:56.041Z,2.47
2023-04-06T23:10:58.011Z,2.42
2023-04-06T23:13:29.280Z,2.42
2023-04-06T23:16:00.471Z,4.03
2023-04-06T23:18:31.505Z,3.20
2023-04-06T23:21:02.882Z,3.20
2023-04-06T23:23:34.424Z,3.45
2023-04-06T23:26:06.662Z,4.05
2023-04-06T23:31:09.185Z,4.72
2023-04-06T23:33:40.403Z,3.85
2023-04-06T23:36:12.632Z,3.88
2023-04-06T23:38:43.680Z,2.90
2023-04-06T23:41:18.234Z,2.67
2023-04-06T23:43:49.400Z,3.25
2023-04-06T23:46:20.582Z,2.85
2023-04-06T23:48:51.982Z,3.42
2023-04-06T23:53:53.969Z,4.40
2023-04-06T23:56:25.198Z,2.03
2023-04-06T23:58:57.056Z,4.38
